Sakishima No.116 — JH3376 — position and weather

sailwx.info

Track history (hours):
 
Tides and Currents Weather Stations Pressure Air Temp Water Temp Dewpoint Dewpoint Depression Visibility Wind Speed Wind Dir Waves Ship Positions

Sakishima No.116

Last reported at 2018-Feb-14 12:32 UTC. Time now 2018-Feb-21 09:14 UTC.
Position N 34°52' E 139°48'.

Length 82 m; draft 5 m.

Type: Cargo ship. MMSI: 431200133.

Date/timePositionNaut miles runAvg speedWind from/ knotsBaromVisibWave heightAir tempDewpointWater temp
2018-Feb-14 12:32N 34°52' E 139°48'310.5
2018-Feb-14 12:17N 34°54' E 139°45'3 9.3
2018-Feb-14 11:55N 34°57' E 139°44'3 7.2
2018-Feb-14 11:29N 35°00' E 139°45'4 7.3
2018-Feb-14 11:00N 35°04' E 139°45'4 8.1
2018-Feb-14 10:30N 35°08' E 139°46'5 9.1
2018-Feb-14 10:00N 35°12' E 139°46'510.7
2018-Feb-14 09:30N 35°17' E 139°44'3 5.4
2018-Feb-14 08:59N 35°16' E 139°41'0 0.0
2018-Feb-14 08:27N 35°16' E 139°41'0 0.0
2018-Feb-14 05:15N 35°16' E 139°41'0 0.0
2018-Feb-14 04:51N 35°16' E 139°41'0 0.0
2018-Feb-14 04:27N 35°16' E 139°41'0 0.0
2018-Feb-14 03:57N 35°16' E 139°41'0 0.0
2018-Feb-14 02:33N 35°16' E 139°41'0 0.1
2018-Feb-14 02:27N 35°16' E 139°41'0 0.0
2018-Feb-14 00:33N 35°16' E 139°41'0 0.0
2018-Feb-13 23:15N 35°16' E 139°41'0 0.0
2018-Feb-13 22:57N 35°16' E 139°41'0 0.0
2018-Feb-13 21:09N 35°16' E 139°41'0 0.0
2018-Feb-13 20:57N 35°16' E 139°41'0 0.0
2018-Feb-13 20:27N 35°16' E 139°41'0 0.0
2018-Feb-13 19:57N 35°16' E 139°41'0 0.0
2018-Feb-13 19:15N 35°16' E 139°41'0 0.0
2018-Feb-13 18:45N 35°16' E 139°41'0 0.0
2018-Feb-13 18:27N 35°16' E 139°41'0 0.0
2018-Feb-13 17:57N 35°16' E 139°41'0 0.0
2018-Feb-13 17:27N 35°16' E 139°41'0 0.0
2018-Feb-13 16:57N 35°16' E 139°41'0 0.0
2018-Feb-13 16:27N 35°16' E 139°41'0 0.0
2018-Feb-13 15:57N 35°16' E 139°41'0 0.0
2018-Feb-13 15:15N 35°16' E 139°41'0 0.0
2018-Feb-13 14:57N 35°16' E 139°41'0 0.0
2018-Feb-13 14:15N 35°16' E 139°41'0 0.0
2018-Feb-13 13:51N 35°16' E 139°41'0 0.0
2018-Feb-13 13:27N 35°16' E 139°41'0 0.0
2018-Feb-13 12:57N 35°16' E 139°41'0 0.0
2018-Feb-13 12:27N 35°16' E 139°41'0 0.0
2018-Feb-13 11:51N 35°16' E 139°41'0 0.0
2018-Feb-13 11:27N 35°16' E 139°41'0 0.0
2018-Feb-13 10:45N 35°16' E 139°41'0 0.0
2018-Feb-13 10:27N 35°16' E 139°41'0 0.0
2018-Feb-13 09:51N 35°16' E 139°41'0 0.0
2018-Feb-13 09:27N 35°16' E 139°41'0 0.0
2018-Feb-13 08:51N 35°16' E 139°41'0 0.0
2018-Feb-13 07:39N 35°16' E 139°41'0 0.0
2018-Feb-13 07:27N 35°16' E 139°41'0 0.0
2018-Feb-13 06:57N 35°16' E 139°41'0 0.0
2018-Feb-13 06:21N 35°16' E 139°41'0 0.0
2018-Feb-13 05:51N 35°16' E 139°41'0 0.0
2018-Feb-13 02:21N 35°16' E 139°41'0 0.0
2018-Feb-13 01:15N 35°16' E 139°41'0 0.0
2018-Feb-13 00:51N 35°16' E 139°41'0 0.0
2018-Feb-13 00:27N 35°16' E 139°41'0 0.0
2018-Feb-12 23:57N 35°16' E 139°41'0 0.0
2018-Feb-12 23:27N 35°16' E 139°41'0 0.0
2018-Feb-12 22:57N 35°16' E 139°41'0 0.0
2018-Feb-12 22:21N 35°16' E 139°41'0 0.0
2018-Feb-12 21:09N 35°16' E 139°41'0 0.0
2018-Feb-12 20:39N 35°16' E 139°41'0 0.0
2018-Feb-12 20:27N 35°16' E 139°41'0 0.0
2018-Feb-12 19:57N 35°16' E 139°41'0 0.0
2018-Feb-12 19:15N 35°16' E 139°41'0 0.0
2018-Feb-12 18:57N 35°16' E 139°41'0 0.0
2018-Feb-12 18:03N 35°16' E 139°41'0 0.0
2018-Feb-12 17:51N 35°16' E 139°41'0 0.0
2018-Feb-12 17:21N 35°16' E 139°41'0 0.0
2018-Feb-12 16:57N 35°16' E 139°41'0 0.0
2018-Feb-12 16:27N 35°16' E 139°41'0 0.0
2018-Feb-12 15:39N 35°16' E 139°41'0 0.0
2018-Feb-12 14:57N 35°16' E 139°41'0 0.0
2018-Feb-12 14:27N 35°16' E 139°41'0 0.0
2018-Feb-12 13:57N 35°16' E 139°41'0 0.0
2018-Feb-12 13:27N 35°16' E 139°41'0 0.0
2018-Feb-12 12:51N 35°16' E 139°41'0 0.0
2018-Feb-12 12:27N 35°16' E 139°41'0 0.0
2018-Feb-12 11:57N 35°16' E 139°41'0 0.0
2018-Feb-12 11:27N 35°16' E 139°41'0 0.0
2018-Feb-12 10:51N 35°16' E 139°41'0 0.0
2018-Feb-12 10:27N 35°16' E 139°41'0 0.0
2018-Feb-12 09:57N 35°16' E 139°41'0 0.0
2018-Feb-12 09:27N 35°16' E 139°41'0 0.0
2018-Feb-12 08:45N 35°16' E 139°41'0 0.0
2018-Feb-12 07:57N 35°16' E 139°41'0 0.0
2018-Feb-12 05:03N 35°16' E 139°41'0 0.0
2018-Feb-12 04:57N 35°16' E 139°41'0 0.0
2018-Feb-12 03:45N 35°16' E 139°41'0 0.0
2018-Feb-12 02:39N 35°16' E 139°41'0 0.0
2018-Feb-12 02:27N 35°16' E 139°41'0 0.0
2018-Feb-12 01:57N 35°16' E 139°41'0 0.0
2018-Feb-12 01:03N 35°16' E 139°41'0 0.0
2018-Feb-12 00:51N 35°16' E 139°41'0 0.0
2018-Feb-12 00:21N 35°16' E 139°41'0 0.0
2018-Feb-11 23:51N 35°16' E 139°41'0 0.0
2018-Feb-11 23:27N 35°16' E 139°41'0 0.0
2018-Feb-11 22:51N 35°16' E 139°41'0 0.0
2018-Feb-11 19:00N 35°16' E 139°41'0 0.0
2018-Feb-11 17:18N 35°16' E 139°41'0 0.0
2018-Feb-11 17:00N 35°16' E 139°41'0 0.0
2018-Feb-11 16:27N 35°16' E 139°41'0 0.0
2018-Feb-11 15:03N 35°16' E 139°41'0 0.0
2018-Feb-11 14:03N 35°16' E 139°41'0 0.0
2018-Feb-11 13:45N 35°16' E 139°41'0 0.0
2018-Feb-11 13:03N 35°16' E 139°41'0 0.0
2018-Feb-11 12:51N 35°16' E 139°41'0 0.0
2018-Feb-11 12:21N 35°16' E 139°41'0 0.0
2018-Feb-11 11:57N 35°16' E 139°41'0 0.0
2018-Feb-11 11:09N 35°16' E 139°41'0 0.0
2018-Feb-11 10:51N 35°16' E 139°41'0 0.0
2018-Feb-11 10:24N 35°16' E 139°41'0 0.0
2018-Feb-11 09:57N 35°16' E 139°41'0 0.0
2018-Feb-11 09:27N 35°16' E 139°41'0 0.0
2018-Feb-11 05:57N 35°16' E 139°41'0 0.0
2018-Feb-10 23:33N 35°16' E 139°41'0 0.0
2018-Feb-10 23:15N 35°16' E 139°41'0 0.0
2018-Feb-10 22:45N 35°16' E 139°41'0 0.0
2018-Feb-10 22:15N 35°16' E 139°41'0 0.0
2018-Feb-10 21:21N 35°16' E 139°41'0 0.0
2018-Feb-10 14:27N 35°16' E 139°41'0 0.0
2018-Feb-10 13:57N 35°16' E 139°41'0 0.0
2018-Feb-10 13:18N 35°16' E 139°41'0 0.0
2018-Feb-10 12:51N 35°16' E 139°41'0 0.0
2018-Feb-10 12:15N 35°16' E 139°41'0 0.0
2018-Feb-10 11:51N 35°16' E 139°41'0 0.0
2018-Feb-10 11:27N 35°16' E 139°41'0 0.0
2018-Feb-10 10:36N 35°16' E 139°41'0 0.0
2018-Feb-10 10:27N 35°16' E 139°41'0 0.0
2018-Feb-10 09:15N 35°16' E 139°41'0 0.0
2018-Feb-10 08:57N 35°16' E 139°41'0 0.0
2018-Feb-10 08:09N 35°16' E 139°41'0 0.0
2018-Feb-10 07:57N 35°16' E 139°41'0 0.0
2018-Feb-10 07:27N 35°16' E 139°41'0 0.0
2018-Feb-10 06:57N 35°16' E 139°41'0 0.0
2018-Feb-10 05:45N 35°16' E 139°41'0 0.0
2018-Feb-10 05:21N 35°16' E 139°41'0 0.0
2018-Feb-09 22:56N 35°16' E 139°41'0 0.6
2018-Feb-09 22:45N 35°16' E 139°41'1 3.8
2018-Feb-09 22:30N 35°17' E 139°41'510.0
2018-Feb-09 22:00N 35°22' E 139°42'6 0.1
2018-Feb-08 01:27N 35°28' E 139°42'0 0.0
2018-Feb-08 00:54N 35°28' E 139°42'0 0.0
2018-Feb-08 00:27N 35°28' E 139°42'0 0.0
2018-Feb-07 23:57N 35°28' E 139°42'0 0.0
2018-Feb-07 23:30N 35°28' E 139°42'0 0.0
2018-Feb-07 23:00N 35°28' E 139°42'0 0.0
2018-Feb-07 22:30N 35°28' E 139°42'0 0.0
2018-Feb-07 22:00N 35°28' E 139°42'0 0.0
2018-Feb-07 21:30N 35°28' E 139°42'0 0.0
2018-Feb-07 09:30N 35°28' E 139°42'0 0.0
2018-Feb-07 08:57N 35°28' E 139°42'0 0.0
2018-Feb-07 08:30N 35°28' E 139°42'0 0.0
2018-Feb-07 08:00N 35°28' E 139°42'0 0.6
2018-Feb-07 07:30N 35°28' E 139°42'612.1
2018-Feb-07 07:00N 35°25' E 139°48'5 9.3
2018-Feb-07 06:30N 35°22' E 139°53'0 0.0
2018-Feb-07 05:55N 35°22' E 139°53'0 0.0
2018-Feb-07 05:25N 35°22' E 139°53'0 0.0
2018-Feb-07 04:40N 35°22' E 139°53'0 0.0
2018-Feb-07 04:28N 35°22' E 139°53'0 0.0
2018-Feb-07 03:58N 35°22' E 139°53'0 0.0
2018-Feb-07 03:28N 35°22' E 139°53'1 2.5
2018-Feb-07 03:00N 35°22' E 139°52'510.8
2018-Feb-07 02:30N 35°22' E 139°45'5 9.9
2018-Feb-07 02:00N 35°17' E 139°46'510.6
2018-Feb-07 01:30N 35°12' E 139°47'611.1
2018-Feb-07 01:00N 35°06' E 139°46'1110.5
2018-Feb-06 23:56N 34°55' E 139°47'38010.0
2018-Feb-05 10:04N 41°05' E 141°35'210.3
2018-Feb-05 09:53N 41°07' E 141°35'2511.7
2018-Feb-05 07:45N 41°32' E 141°29'611.6
2018-Feb-05 07:16N 41°37' E 141°26'410.2
2018-Feb-05 06:54N 41°41' E 141°26'510.7
2018-Feb-05 06:29N 41°45' E 141°26'12 1.0
2018-Feb-04 18:31N 41°54' E 141°15'1 9.9
2018-Feb-04 18:27N 41°54' E 141°14'5 9.8
2018-Feb-04 18:00N 41°49' E 141°13'510.4
2018-Feb-04 17:30N 41°45' E 141°09'2110.8
2018-Feb-04 15:31N 41°44' E 140°41'4 7.6
2018-Feb-04 15:01N 41°48' E 140°42'1 1.3
2018-Feb-04 14:30N 41°48' E 140°43'0 0.0
2018-Feb-04 13:58N 41°48' E 140°43'0 0.0
2018-Feb-04 13:25N 41°48' E 140°43'0 0.0
2018-Feb-04 12:55N 41°48' E 140°43'  
Track history (hours):
 
Tides and Currents Weather Stations Pressure Air Temp Water Temp Dewpoint Dewpoint Depression Visibility Wind Speed Wind Dir Waves Ship Positions

Sakishima No.116

Last reported at 2018-Feb-14 12:32 UTC. Time now 2018-Feb-21 09:14 UTC.
Position N 34°52' E 139°48'.

Length 82 m; draft 5 m.

Type: Cargo ship. MMSI: 431200133.

Date/timePositionNaut miles runAvg speedWind from/ knotsBaromVisibWave heightAir tempDewpointWater temp
2018-Feb-14 12:32N 34°52' E 139°48'310.5
2018-Feb-14 12:17N 34°54' E 139°45'3 9.3
2018-Feb-14 11:55N 34°57' E 139°44'3 7.2
2018-Feb-14 11:29N 35°00' E 139°45'4 7.3
2018-Feb-14 11:00N 35°04' E 139°45'4 8.1
2018-Feb-14 10:30N 35°08' E 139°46'5 9.1
2018-Feb-14 10:00N 35°12' E 139°46'510.7
2018-Feb-14 09:30N 35°17' E 139°44'3 5.4
2018-Feb-14 08:59N 35°16' E 139°41'0 0.0
2018-Feb-14 08:27N 35°16' E 139°41'0 0.0
2018-Feb-14 05:15N 35°16' E 139°41'0 0.0
2018-Feb-14 04:51N 35°16' E 139°41'0 0.0
2018-Feb-14 04:27N 35°16' E 139°41'0 0.0
2018-Feb-14 03:57N 35°16' E 139°41'0 0.0
2018-Feb-14 02:33N 35°16' E 139°41'0 0.1
2018-Feb-14 02:27N 35°16' E 139°41'0 0.0
2018-Feb-14 00:33N 35°16' E 139°41'0 0.0
2018-Feb-13 23:15N 35°16' E 139°41'0 0.0
2018-Feb-13 22:57N 35°16' E 139°41'0 0.0
2018-Feb-13 21:09N 35°16' E 139°41'0 0.0
2018-Feb-13 20:57N 35°16' E 139°41'0 0.0
2018-Feb-13 20:27N 35°16' E 139°41'0 0.0
2018-Feb-13 19:57N 35°16' E 139°41'0 0.0
2018-Feb-13 19:15N 35°16' E 139°41'0 0.0
2018-Feb-13 18:45N 35°16' E 139°41'0 0.0
2018-Feb-13 18:27N 35°16' E 139°41'0 0.0
2018-Feb-13 17:57N 35°16' E 139°41'0 0.0
2018-Feb-13 17:27N 35°16' E 139°41'0 0.0
2018-Feb-13 16:57N 35°16' E 139°41'0 0.0
2018-Feb-13 16:27N 35°16' E 139°41'0 0.0
2018-Feb-13 15:57N 35°16' E 139°41'0 0.0
2018-Feb-13 15:15N 35°16' E 139°41'0 0.0
2018-Feb-13 14:57N 35°16' E 139°41'0 0.0
2018-Feb-13 14:15N 35°16' E 139°41'0 0.0
2018-Feb-13 13:51N 35°16' E 139°41'0 0.0
2018-Feb-13 13:27N 35°16' E 139°41'0 0.0
2018-Feb-13 12:57N 35°16' E 139°41'0 0.0
2018-Feb-13 12:27N 35°16' E 139°41'0 0.0
2018-Feb-13 11:51N 35°16' E 139°41'0 0.0
2018-Feb-13 11:27N 35°16' E 139°41'0 0.0
2018-Feb-13 10:45N 35°16' E 139°41'0 0.0
2018-Feb-13 10:27N 35°16' E 139°41'0 0.0
2018-Feb-13 09:51N 35°16' E 139°41'0 0.0
2018-Feb-13 09:27N 35°16' E 139°41'0 0.0
2018-Feb-13 08:51N 35°16' E 139°41'0 0.0
2018-Feb-13 07:39N 35°16' E 139°41'0 0.0
2018-Feb-13 07:27N 35°16' E 139°41'0 0.0
2018-Feb-13 06:57N 35°16' E 139°41'0 0.0
2018-Feb-13 06:21N 35°16' E 139°41'0 0.0
2018-Feb-13 05:51N 35°16' E 139°41'0 0.0
2018-Feb-13 02:21N 35°16' E 139°41'0 0.0
2018-Feb-13 01:15N 35°16' E 139°41'0 0.0
2018-Feb-13 00:51N 35°16' E 139°41'0 0.0
2018-Feb-13 00:27N 35°16' E 139°41'0 0.0
2018-Feb-12 23:57N 35°16' E 139°41'0 0.0
2018-Feb-12 23:27N 35°16' E 139°41'0 0.0
2018-Feb-12 22:57N 35°16' E 139°41'0 0.0
2018-Feb-12 22:21N 35°16' E 139°41'0 0.0
2018-Feb-12 21:09N 35°16' E 139°41'0 0.0
2018-Feb-12 20:39N 35°16' E 139°41'0 0.0
2018-Feb-12 20:27N 35°16' E 139°41'0 0.0
2018-Feb-12 19:57N 35°16' E 139°41'0 0.0
2018-Feb-12 19:15N 35°16' E 139°41'0 0.0
2018-Feb-12 18:57N 35°16' E 139°41'0 0.0
2018-Feb-12 18:03N 35°16' E 139°41'0 0.0
2018-Feb-12 17:51N 35°16' E 139°41'0 0.0
2018-Feb-12 17:21N 35°16' E 139°41'0 0.0
2018-Feb-12 16:57N 35°16' E 139°41'0 0.0
2018-Feb-12 16:27N 35°16' E 139°41'0 0.0
2018-Feb-12 15:39N 35°16' E 139°41'0 0.0
2018-Feb-12 14:57N 35°16' E 139°41'0 0.0
2018-Feb-12 14:27N 35°16' E 139°41'0 0.0
2018-Feb-12 13:57N 35°16' E 139°41'0 0.0
2018-Feb-12 13:27N 35°16' E 139°41'0 0.0
2018-Feb-12 12:51N 35°16' E 139°41'0 0.0
2018-Feb-12 12:27N 35°16' E 139°41'0 0.0
2018-Feb-12 11:57N 35°16' E 139°41'0 0.0
2018-Feb-12 11:27N 35°16' E 139°41'0 0.0
2018-Feb-12 10:51N 35°16' E 139°41'0 0.0
2018-Feb-12 10:27N 35°16' E 139°41'0 0.0
2018-Feb-12 09:57N 35°16' E 139°41'0 0.0
2018-Feb-12 09:27N 35°16' E 139°41'0 0.0
2018-Feb-12 08:45N 35°16' E 139°41'0 0.0
2018-Feb-12 07:57N 35°16' E 139°41'0 0.0
2018-Feb-12 05:03N 35°16' E 139°41'0 0.0
2018-Feb-12 04:57N 35°16' E 139°41'0 0.0
2018-Feb-12 03:45N 35°16' E 139°41'0 0.0
2018-Feb-12 02:39N 35°16' E 139°41'0 0.0
2018-Feb-12 02:27N 35°16' E 139°41'0 0.0
2018-Feb-12 01:57N 35°16' E 139°41'0 0.0
2018-Feb-12 01:03N 35°16' E 139°41'0 0.0
2018-Feb-12 00:51N 35°16' E 139°41'0 0.0
2018-Feb-12 00:21N 35°16' E 139°41'0 0.0
2018-Feb-11 23:51N 35°16' E 139°41'0 0.0
2018-Feb-11 23:27N 35°16' E 139°41'0 0.0
2018-Feb-11 22:51N 35°16' E 139°41'0 0.0
2018-Feb-11 19:00N 35°16' E 139°41'0 0.0
2018-Feb-11 17:18N 35°16' E 139°41'0 0.0
2018-Feb-11 17:00N 35°16' E 139°41'0 0.0
2018-Feb-11 16:27N 35°16' E 139°41'0 0.0
2018-Feb-11 15:03N 35°16' E 139°41'0 0.0
2018-Feb-11 14:03N 35°16' E 139°41'0 0.0
2018-Feb-11 13:45N 35°16' E 139°41'0 0.0
2018-Feb-11 13:03N 35°16' E 139°41'0 0.0
2018-Feb-11 12:51N 35°16' E 139°41'0 0.0
2018-Feb-11 12:21N 35°16' E 139°41'0 0.0
2018-Feb-11 11:57N 35°16' E 139°41'0 0.0
2018-Feb-11 11:09N 35°16' E 139°41'0 0.0
2018-Feb-11 10:51N 35°16' E 139°41'0 0.0
2018-Feb-11 10:24N 35°16' E 139°41'0 0.0
2018-Feb-11 09:57N 35°16' E 139°41'0 0.0
2018-Feb-11 09:27N 35°16' E 139°41'0 0.0
2018-Feb-11 05:57N 35°16' E 139°41'0 0.0
2018-Feb-10 23:33N 35°16' E 139°41'0 0.0
2018-Feb-10 23:15N 35°16' E 139°41'0 0.0
2018-Feb-10 22:45N 35°16' E 139°41'0 0.0
2018-Feb-10 22:15N 35°16' E 139°41'0 0.0
2018-Feb-10 21:21N 35°16' E 139°41'0 0.0
2018-Feb-10 14:27N 35°16' E 139°41'0 0.0
2018-Feb-10 13:57N 35°16' E 139°41'0 0.0
2018-Feb-10 13:18N 35°16' E 139°41'0 0.0
2018-Feb-10 12:51N 35°16' E 139°41'0 0.0
2018-Feb-10 12:15N 35°16' E 139°41'0 0.0
2018-Feb-10 11:51N 35°16' E 139°41'0 0.0
2018-Feb-10 11:27N 35°16' E 139°41'0 0.0
2018-Feb-10 10:36N 35°16' E 139°41'0 0.0
2018-Feb-10 10:27N 35°16' E 139°41'0 0.0
2018-Feb-10 09:15N 35°16' E 139°41'0 0.0
2018-Feb-10 08:57N 35°16' E 139°41'0 0.0
2018-Feb-10 08:09N 35°16' E 139°41'0 0.0
2018-Feb-10 07:57N 35°16' E 139°41'0 0.0
2018-Feb-10 07:27N 35°16' E 139°41'0 0.0
2018-Feb-10 06:57N 35°16' E 139°41'0 0.0
2018-Feb-10 05:45N 35°16' E 139°41'0 0.0
2018-Feb-10 05:21N 35°16' E 139°41'0 0.0
2018-Feb-09 22:56N 35°16' E 139°41'0 0.6
2018-Feb-09 22:45N 35°16' E 139°41'1 3.8
2018-Feb-09 22:30N 35°17' E 139°41'510.0
2018-Feb-09 22:00N 35°22' E 139°42'6 0.1
2018-Feb-08 01:27N 35°28' E 139°42'0 0.0
2018-Feb-08 00:54N 35°28' E 139°42'0 0.0
2018-Feb-08 00:27N 35°28' E 139°42'0 0.0
2018-Feb-07 23:57N 35°28' E 139°42'0 0.0
2018-Feb-07 23:30N 35°28' E 139°42'0 0.0
2018-Feb-07 23:00N 35°28' E 139°42'0 0.0
2018-Feb-07 22:30N 35°28' E 139°42'0 0.0
2018-Feb-07 22:00N 35°28' E 139°42'0 0.0
2018-Feb-07 21:30N 35°28' E 139°42'0 0.0
2018-Feb-07 09:30N 35°28' E 139°42'0 0.0
2018-Feb-07 08:57N 35°28' E 139°42'0 0.0
2018-Feb-07 08:30N 35°28' E 139°42'0 0.0
2018-Feb-07 08:00N 35°28' E 139°42'0 0.6
2018-Feb-07 07:30N 35°28' E 139°42'612.1
2018-Feb-07 07:00N 35°25' E 139°48'5 9.3
2018-Feb-07 06:30N 35°22' E 139°53'0 0.0
2018-Feb-07 05:55N 35°22' E 139°53'0 0.0
2018-Feb-07 05:25N 35°22' E 139°53'0 0.0
2018-Feb-07 04:40N 35°22' E 139°53'0 0.0
2018-Feb-07 04:28N 35°22' E 139°53'0 0.0
2018-Feb-07 03:58N 35°22' E 139°53'0 0.0
2018-Feb-07 03:28N 35°22' E 139°53'1 2.5
2018-Feb-07 03:00N 35°22' E 139°52'510.8
2018-Feb-07 02:30N 35°22' E 139°45'5 9.9
2018-Feb-07 02:00N 35°17' E 139°46'510.6
2018-Feb-07 01:30N 35°12' E 139°47'611.1
2018-Feb-07 01:00N 35°06' E 139°46'1110.5
2018-Feb-06 23:56N 34°55' E 139°47'38010.0
2018-Feb-05 10:04N 41°05' E 141°35'210.3
2018-Feb-05 09:53N 41°07' E 141°35'2511.7
2018-Feb-05 07:45N 41°32' E 141°29'611.6
2018-Feb-05 07:16N 41°37' E 141°26'410.2
2018-Feb-05 06:54N 41°41' E 141°26'510.7
2018-Feb-05 06:29N 41°45' E 141°26'12 1.0
2018-Feb-04 18:31N 41°54' E 141°15'1 9.9
2018-Feb-04 18:27N 41°54' E 141°14'5 9.8
2018-Feb-04 18:00N 41°49' E 141°13'510.4
2018-Feb-04 17:30N 41°45' E 141°09'2110.8
2018-Feb-04 15:31N 41°44' E 140°41'4 7.6
2018-Feb-04 15:01N 41°48' E 140°42'1 1.3
2018-Feb-04 14:30N 41°48' E 140°43'0 0.0
2018-Feb-04 13:58N 41°48' E 140°43'0 0.0
2018-Feb-04 13:25N 41°48' E 140°43'0 0.0
2018-Feb-04 12:55N 41°48' E 140°43'  

Dump ship's entire track history